createdAt,value
2018-06-18T00:02:11.840Z,74.30
2018-06-18T00:04:40.386Z,74.20
2018-06-18T00:07:08.622Z,74.20
2018-06-18T00:09:36.938Z,74.20
2018-06-18T00:12:06.038Z,74.20
2018-06-18T00:14:35.036Z,74.20
2018-06-18T00:17:03.272Z,74.10
2018-06-18T00:19:31.689Z,74.10
2018-06-18T00:21:59.998Z,74.10
2018-06-18T00:24:28.309Z,74.10
2018-06-18T00:26:56.827Z,74.00
2018-06-18T00:29:25.058Z,74.00
2018-06-18T00:31:53.260Z,74.00
2018-06-18T00:34:22.379Z,73.90
2018-06-18T00:36:50.678Z,73.90
2018-06-18T00:39:19.105Z,73.90
2018-06-18T00:41:47.706Z,73.90
2018-06-18T00:44:15.920Z,73.80
2018-06-18T00:46:44.238Z,73.80
2018-06-18T00:49:12.634Z,73.80
2018-06-18T00:51:40.929Z,73.70
2018-06-18T00:54:09.263Z,73.70
2018-06-18T00:56:38.403Z,73.70
2018-06-18T00:59:06.695Z,73.70
2018-06-18T01:01:34.986Z,73.70
2018-06-18T01:04:03.439Z,73.70
2018-06-18T01:06:31.673Z,73.70
2018-06-18T01:09:01.332Z,73.60
2018-06-18T01:11:29.846Z,73.60
2018-06-18T01:13:58.034Z,73.60
2018-06-18T01:16:26.736Z,73.60
2018-06-18T01:18:55.866Z,73.50
2018-06-18T01:21:24.242Z,73.50
2018-06-18T01:23:56.884Z,73.50
2018-06-18T01:26:25.244Z,73.50
2018-06-18T01:28:53.475Z,73.50
2018-06-18T01:31:22.167Z,73.50
2018-06-18T01:33:51.674Z,73.40
2018-06-18T01:36:19.962Z,73.40
2018-06-18T01:38:48.430Z,73.40
2018-06-18T01:41:16.630Z,73.40
2018-06-18T01:43:44.846Z,73.40
2018-06-18T01:46:13.098Z,73.40
2018-06-18T01:48:41.409Z,73.40
2018-06-18T01:51:09.631Z,73.40
2018-06-18T01:53:38.746Z,73.40
2018-06-18T01:58:35.006Z,73.40
2018-06-18T02:01:03.741Z,73.60
2018-06-18T02:03:32.108Z,73.30
2018-06-18T02:06:00.322Z,73.30
2018-06-18T02:08:30.730Z,73.30
2018-06-18T02:10:58.961Z,73.30
2018-06-18T02:13:27.195Z,73.30
2018-06-18T02:15:55.960Z,73.30
2018-06-18T02:18:24.166Z,73.20
2018-06-18T02:20:52.477Z,73.20
2018-06-18T02:23:20.755Z,73.10
2018-06-18T02:25:49.058Z,73.20
2018-06-18T02:28:23.390Z,73.10
2018-06-18T02:30:56.951Z,73.10
2018-06-18T02:33:30.912Z,73.10
2018-06-18T02:36:04.423Z,73.10
2018-06-18T02:38:37.048Z,73.10
2018-06-18T02:41:14.934Z,73.00
2018-06-18T02:43:43.766Z,73.00
2018-06-18T02:46:11.969Z,73.00
2018-06-18T02:48:40.189Z,73.00
2018-06-18T02:51:08.751Z,73.00
2018-06-18T02:53:36.965Z,73.00
2018-06-18T02:56:06.106Z,73.00
2018-06-18T02:58:34.557Z,73.00
2018-06-18T03:01:02.774Z,73.00
2018-06-18T03:05:59.793Z,72.90
2018-06-18T03:08:29.507Z,72.90
2018-06-18T03:10:57.759Z,72.90
2018-06-18T03:13:26.264Z,72.90
2018-06-18T03:15:54.483Z,72.90
2018-06-18T03:18:28.208Z,72.90
2018-06-18T03:21:01.876Z,72.90
2018-06-18T03:23:36.010Z,72.80
2018-06-18T03:26:09.677Z,72.90
2018-06-18T03:28:43.243Z,72.80
2018-06-18T03:31:11.548Z,72.80
2018-06-18T03:33:39.787Z,72.90
2018-06-18T03:36:08.935Z,72.80
2018-06-18T03:38:37.322Z,72.80
2018-06-18T03:41:05.537Z,72.80
2018-06-18T03:43:36.656Z,72.70
2018-06-18T03:46:05.322Z,72.70
2018-06-18T03:48:33.609Z,72.70
2018-06-18T03:51:02.462Z,72.70
2018-06-18T03:53:30.838Z,72.70
2018-06-18T03:56:00.273Z,72.70
2018-06-18T03:58:28.518Z,72.60
2018-06-18T04:02:16.362Z,72.70
2018-06-18T04:04:59.217Z,72.70
2018-06-18T04:07:32.618Z,72.60
2018-06-18T04:12:41.326Z,72.60
2018-06-18T04:15:15.866Z,72.60
2018-06-18T04:17:44.321Z,72.60
2018-06-18T04:20:12.578Z,72.50
2018-06-18T04:22:40.874Z,72.60
2018-06-18T04:25:09.765Z,72.50
2018-06-18T04:27:38.010Z,72.50
2018-06-18T04:30:06.263Z,72.50
2018-06-18T04:32:34.939Z,72.50
2018-06-18T04:35:05.599Z,72.60
2018-06-18T04:37:33.891Z,72.50
2018-06-18T04:40:02.164Z,72.60
2018-06-18T04:42:36.731Z,72.60
2018-06-18T04:45:10.355Z,72.60
2018-06-18T04:47:44.081Z,72.50
2018-06-18T04:50:17.764Z,72.60
2018-06-18T04:52:46.249Z,72.60
2018-06-18T04:55:14.835Z,72.60
2018-06-18T05:00:26.194Z,72.70
2018-06-18T05:02:54.441Z,72.80
2018-06-18T05:05:22.917Z,72.80
2018-06-18T05:08:00.547Z,72.80
2018-06-18T05:10:29.679Z,72.90
2018-06-18T05:12:57.961Z,73.00
2018-06-18T05:15:33.794Z,71.80
2018-06-18T05:18:02.043Z,70.30
2018-06-18T05:20:30.846Z,71.30
2018-06-18T05:22:59.294Z,71.70
2018-06-18T05:25:27.747Z,72.10
2018-06-18T05:27:56.039Z,72.50
2018-06-18T05:30:28.103Z,72.90
2018-06-18T05:32:56.483Z,73.00
2018-06-18T05:35:24.808Z,73.00
2018-06-18T05:38:00.032Z,73.00
2018-06-18T05:40:28.254Z,73.00
2018-06-18T05:42:56.477Z,73.00
2018-06-18T05:45:25.087Z,73.30
2018-06-18T05:47:53.391Z,69.90
2018-06-18T05:50:21.945Z,68.90
2018-06-18T05:52:50.530Z,69.70
2018-06-18T05:55:18.772Z,70.70
2018-06-18T05:57:47.009Z,70.80
2018-06-18T06:00:15.839Z,71.40
2018-06-18T06:02:44.079Z,71.50
2018-06-18T06:05:12.650Z,71.70
2018-06-18T06:07:45.627Z,71.50
2018-06-18T06:10:13.852Z,71.60
2018-06-18T06:12:42.166Z,71.60
2018-06-18T06:15:10.758Z,71.80
2018-06-18T06:17:39.005Z,72.50
2018-06-18T06:20:07.773Z,71.90
2018-06-18T06:22:36.618Z,71.90
2018-06-18T06:25:04.887Z,72.00
2018-06-18T06:27:33.135Z,71.90
2018-06-18T06:30:01.851Z,71.90
2018-06-18T06:32:30.112Z,71.70
2018-06-18T06:35:01.754Z,71.60
2018-06-18T06:37:30.068Z,71.60
2018-06-18T06:39:58.283Z,71.50
2018-06-18T06:42:27.631Z,71.30
2018-06-18T06:44:55.877Z,71.10
2018-06-18T06:47:24.142Z,71.20
2018-06-18T06:49:52.623Z,71.40
2018-06-18T06:52:20.867Z,71.20
2018-06-18T06:54:49.110Z,70.90
2018-06-18T06:57:18.010Z,70.70
2018-06-18T06:59:46.302Z,70.80
2018-06-18T07:02:14.535Z,70.60
2018-06-18T07:04:45.040Z,70.70
2018-06-18T07:07:16.018Z,70.60
2018-06-18T07:09:45.234Z,70.50
2018-06-18T07:12:13.476Z,71.10
2018-06-18T07:14:41.730Z,70.20
2018-06-18T07:17:09.971Z,70.90
2018-06-18T07:19:38.306Z,71.30
2018-06-18T07:22:06.926Z,71.50
2018-06-18T07:24:35.154Z,71.90
2018-06-18T07:27:03.382Z,72.10
2018-06-18T07:29:32.166Z,72.20
2018-06-18T07:32:00.423Z,72.30
2018-06-18T07:34:28.759Z,72.60
2018-06-18T07:36:57.501Z,72.70
2018-06-18T07:39:25.738Z,72.90
2018-06-18T07:41:54.033Z,73.00
2018-06-18T07:44:22.482Z,73.10
2018-06-18T07:46:50.718Z,73.30
2018-06-18T07:49:19.098Z,73.30
2018-06-18T07:51:48.282Z,73.50
2018-06-18T07:54:16.438Z,73.60
2018-06-18T07:56:44.656Z,73.70
2018-06-18T07:59:13.331Z,73.80
2018-06-18T08:01:41.567Z,74.00
2018-06-18T08:04:09.794Z,74.10
2018-06-18T08:06:38.372Z,74.20
2018-06-18T08:09:09.754Z,74.30
2018-06-18T08:11:38.722Z,74.40
2018-06-18T08:14:07.402Z,74.50
2018-06-18T08:16:35.655Z,74.50
2018-06-18T08:19:04.195Z,74.70
2018-06-18T08:21:32.830Z,74.80
2018-06-18T08:24:01.169Z,74.90
2018-06-18T08:26:29.405Z,74.70
2018-06-18T08:28:58.387Z,71.90
2018-06-18T08:31:26.956Z,70.30
2018-06-18T08:33:55.193Z,68.60
2018-06-18T08:36:23.585Z,67.60
2018-06-18T08:38:51.802Z,67.10
2018-06-18T08:41:20.016Z,67.00
2018-06-18T08:43:48.463Z,67.00
2018-06-18T08:46:16.782Z,67.20
2018-06-18T08:54:00.506Z,68.70
2018-06-18T08:56:34.191Z,68.90
2018-06-18T08:59:08.082Z,69.20
2018-06-18T09:01:42.690Z,69.40
2018-06-18T09:04:19.639Z,69.50
2018-06-18T09:06:48.164Z,69.10
2018-06-18T09:09:17.719Z,68.80
2018-06-18T09:11:46.304Z,69.00
2018-06-18T09:14:14.569Z,69.10
2018-06-18T09:16:43.054Z,69.30
2018-06-18T09:19:11.470Z,69.30
2018-06-18T09:21:39.784Z,69.40
2018-06-18T09:24:08.305Z,69.40
2018-06-18T09:26:36.562Z,69.50
2018-06-18T09:29:04.991Z,69.70
2018-06-18T09:31:34.559Z,69.90
2018-06-18T09:34:02.794Z,69.90
2018-06-18T09:36:31.109Z,70.00
2018-06-18T09:38:59.886Z,70.10
2018-06-18T09:41:28.114Z,70.20
2018-06-18T09:43:56.438Z,70.20
2018-06-18T09:46:24.730Z,70.50
2018-06-18T09:51:07.000Z,70.80
2018-06-18T09:53:41.734Z,70.90
2018-06-18T09:56:15.423Z,70.80
2018-06-18T09:58:49.190Z,70.90
2018-06-18T10:01:22.914Z,71.10
2018-06-18T10:03:51.676Z,71.10
2018-06-18T10:06:21.142Z,71.10
2018-06-18T10:08:49.575Z,71.20
2018-06-18T10:11:17.725Z,71.70
2018-06-18T10:13:47.102Z,72.20
2018-06-18T10:16:16.459Z,72.20
2018-06-18T10:18:44.694Z,72.10
2018-06-18T10:21:13.012Z,72.20
2018-06-18T10:23:41.313Z,72.30
2018-06-18T10:26:09.618Z,72.40
2018-06-18T10:28:37.926Z,72.60
2018-06-18T10:31:06.625Z,72.60
2018-06-18T10:33:40.287Z,72.80
2018-06-18T10:36:13.966Z,72.90
2018-06-18T10:38:47.514Z,73.00
2018-06-18T10:41:21.301Z,73.20
2018-06-18T10:43:49.562Z,73.20
2018-06-18T10:46:17.926Z,73.30
2018-06-18T10:48:47.090Z,73.40
2018-06-18T10:51:15.347Z,73.40
2018-06-18T10:53:43.582Z,73.50
2018-06-18T10:56:12.227Z,73.60
2018-06-18T10:58:40.469Z,73.60
2018-06-18T11:01:12.083Z,73.60
2018-06-18T11:03:40.367Z,73.60
2018-06-18T11:06:14.758Z,73.70
2018-06-18T11:08:45.187Z,73.70
2018-06-18T11:11:13.438Z,73.70
2018-06-18T11:13:41.703Z,73.80
2018-06-18T11:16:10.413Z,66.90
2018-06-18T11:18:44.752Z,60.50
2018-06-18T11:21:18.447Z,60.50
2018-06-18T11:23:52.835Z,63.90
2018-06-18T11:26:26.630Z,61.70
2018-06-18T11:28:55.306Z,62.90
2018-06-18T11:31:23.567Z,63.80
2018-06-18T11:33:51.817Z,66.30
2018-06-18T11:36:20.398Z,67.50
2018-06-18T11:38:48.650Z,68.80
2018-06-18T11:41:16.906Z,69.50
2018-06-18T11:43:46.532Z,70.30
2018-06-18T11:46:14.683Z,71.30
2018-06-18T11:48:42.918Z,72.00
2018-06-18T11:51:11.226Z,72.50
2018-06-18T11:53:39.529Z,72.50
2018-06-18T11:56:07.850Z,73.20
2018-06-18T11:58:41.847Z,73.00
2018-06-18T12:01:15.403Z,73.00
2018-06-18T12:03:50.193Z,73.90
2018-06-18T12:06:23.609Z,73.30
2018-06-18T12:08:59.003Z,73.30
2018-06-18T12:11:27.241Z,73.50
2018-06-18T12:13:55.569Z,73.70
2018-06-18T12:16:24.126Z,74.10
2018-06-18T12:18:52.632Z,74.20
2018-06-18T12:21:20.900Z,74.00
2018-06-18T12:23:49.229Z,73.80
2018-06-18T12:26:17.559Z,74.40
2018-06-18T12:28:45.802Z,74.70
2018-06-18T12:31:14.962Z,74.80
2018-06-18T12:33:43.215Z,75.00
2018-06-18T12:36:11.542Z,75.10
2018-06-18T12:38:40.082Z,75.50
2018-06-18T12:41:09.282Z,75.40
2018-06-18T12:43:39.650Z,75.00
2018-06-18T12:46:13.558Z,74.60
2018-06-18T12:48:47.225Z,74.40
2018-06-18T12:51:21.846Z,74.80
2018-06-18T12:53:55.658Z,74.80
2018-06-18T12:56:29.939Z,74.50
2018-06-18T12:58:58.174Z,73.10
2018-06-18T13:01:28.922Z,74.30
2018-06-18T13:03:57.282Z,75.10
2018-06-18T13:06:25.530Z,75.40
2018-06-18T13:08:54.335Z,75.40
2018-06-18T13:11:22.656Z,75.70
2018-06-18T13:13:50.965Z,76.30
2018-06-18T13:16:19.386Z,76.60
2018-06-18T13:18:48.375Z,76.60
2018-06-18T13:21:16.636Z,77.00
2018-06-18T13:23:45.111Z,77.00
2018-06-18T13:26:13.434Z,76.80
2018-06-18T13:28:41.750Z,77.10
2018-06-18T13:31:10.970Z,77.10
2018-06-18T13:33:39.212Z,77.10
2018-06-18T13:36:07.532Z,77.00
2018-06-18T13:38:43.786Z,77.40
2018-06-18T13:41:17.455Z,77.30
2018-06-18T13:43:51.279Z,78.00
2018-06-18T13:46:24.948Z,78.60
2018-06-18T13:48:56.253Z,78.10
2018-06-18T13:51:25.902Z,78.00
2018-06-18T13:53:54.491Z,77.60
2018-06-18T13:56:23.083Z,77.60
2018-06-18T13:58:51.675Z,77.40
2018-06-18T14:01:21.232Z,77.40
2018-06-18T14:03:49.510Z,77.30
2018-06-18T14:06:17.751Z,77.30
2018-06-18T14:08:48.615Z,77.30
2018-06-18T14:11:16.843Z,78.10
2018-06-18T14:13:45.245Z,78.60
2018-06-18T14:16:13.847Z,78.60
2018-06-18T14:18:42.087Z,78.80
2018-06-18T14:21:10.346Z,78.80
2018-06-18T14:23:38.879Z,78.70
2018-06-18T14:26:07.099Z,78.90
2018-06-18T14:28:35.324Z,78.80
2018-06-18T14:31:12.931Z,79.00
2018-06-18T14:33:46.451Z,78.70
2018-06-18T14:36:20.590Z,78.80
2018-06-18T14:38:54.274Z,78.70
2018-06-18T14:41:22.726Z,78.60
2018-06-18T14:43:51.062Z,78.40
2018-06-18T14:46:19.593Z,78.40
2018-06-18T14:48:49.174Z,78.40
2018-06-18T14:51:17.784Z,78.30
2018-06-18T14:53:46.021Z,78.40
2018-06-18T14:56:20.262Z,78.40
2018-06-18T14:59:30.583Z,78.40
2018-06-18T15:01:59.351Z,78.70
2018-06-18T15:04:27.566Z,78.70
2018-06-18T15:06:55.804Z,78.50
2018-06-18T15:09:25.772Z,78.50
2018-06-18T15:11:53.929Z,78.50
2018-06-18T15:14:22.198Z,70.30
2018-06-18T15:16:50.589Z,66.00
2018-06-18T15:19:18.841Z,61.60
2018-06-18T15:21:51.269Z,61.70
2018-06-18T15:24:26.053Z,61.40
2018-06-18T15:26:54.950Z,61.40
2018-06-18T15:29:23.090Z,61.70
2018-06-18T15:31:51.334Z,62.90
2018-06-18T15:34:19.647Z,64.60
2018-06-18T15:36:47.882Z,65.40
2018-06-18T15:39:16.103Z,65.80
2018-06-18T15:41:44.418Z,67.50
2018-06-18T15:44:12.747Z,68.70
2018-06-18T15:46:40.867Z,69.90
2018-06-18T15:49:10.100Z,71.20
2018-06-18T15:51:38.362Z,72.00
2018-06-18T15:54:06.995Z,72.50
2018-06-18T15:56:35.358Z,72.50
2018-06-18T15:59:03.792Z,72.80
2018-06-18T16:01:32.048Z,69.90
2018-06-18T16:04:01.608Z,71.90
2018-06-18T16:06:29.949Z,72.60
2018-06-18T16:09:04.511Z,72.70
2018-06-18T16:11:33.608Z,72.80
2018-06-18T16:14:01.858Z,73.00
2018-06-18T16:16:30.100Z,73.20
2018-06-18T16:18:58.534Z,73.40
2018-06-18T16:21:26.763Z,73.40
2018-06-18T16:23:55.230Z,73.50
2018-06-18T16:26:24.698Z,73.70
2018-06-18T16:28:53.091Z,73.70
2018-06-18T16:31:21.323Z,73.80
2018-06-18T16:33:49.846Z,73.90
2018-06-18T16:36:18.091Z,74.70
2018-06-18T16:38:46.351Z,74.00
2018-06-18T16:41:16.107Z,74.10
2018-06-18T16:43:44.354Z,74.10
2018-06-18T16:46:12.602Z,74.20
2018-06-18T16:48:41.651Z,74.30
2018-06-18T16:51:10.048Z,74.30
2018-06-18T16:53:38.290Z,74.40
2018-06-18T16:56:06.585Z,74.40
2018-06-18T16:58:34.805Z,74.50
2018-06-18T17:01:03.101Z,74.60
2018-06-18T17:03:31.438Z,74.60
2018-06-18T17:06:00.722Z,74.70
2018-06-18T17:08:30.766Z,74.80
2018-06-18T17:10:59.047Z,74.80
2018-06-18T17:13:27.613Z,75.00
2018-06-18T17:15:56.179Z,75.20
2018-06-18T17:18:24.414Z,76.10
2018-06-18T17:20:52.684Z,75.70
2018-06-18T17:23:21.366Z,75.90
2018-06-18T17:25:49.594Z,76.00
2018-06-18T17:28:17.850Z,76.20
2018-06-18T17:30:46.607Z,76.40
2018-06-18T17:33:14.848Z,76.70
2018-06-18T17:35:43.090Z,76.80
2018-06-18T17:38:11.536Z,77.10
2018-06-18T17:40:39.839Z,77.10
2018-06-18T17:43:08.102Z,77.10
2018-06-18T17:45:36.959Z,77.10
2018-06-18T17:48:05.328Z,77.10
2018-06-18T17:50:33.472Z,77.00
2018-06-18T17:53:02.894Z,77.10
2018-06-18T17:55:31.213Z,77.10
2018-06-18T18:00:27.921Z,77.10
2018-06-18T18:02:56.234Z,77.20
2018-06-18T18:05:24.524Z,77.20
2018-06-18T18:07:54.865Z,77.20
2018-06-18T18:10:23.196Z,77.40
2018-06-18T18:12:51.440Z,77.50
2018-06-18T18:15:19.920Z,77.50
2018-06-18T18:17:48.167Z,77.70
2018-06-18T18:20:16.442Z,77.90
2018-06-18T18:22:44.811Z,77.90
2018-06-18T18:25:13.068Z,78.10
2018-06-18T18:27:41.419Z,78.10
2018-06-18T18:30:10.335Z,78.20
2018-06-18T18:32:38.599Z,78.20
2018-06-18T18:35:06.859Z,78.20
2018-06-18T18:37:35.867Z,78.20
2018-06-18T18:40:04.295Z,78.30
2018-06-18T18:42:32.660Z,78.20
2018-06-18T18:45:01.415Z,78.50
2018-06-18T18:47:29.690Z,78.30
2018-06-18T18:49:57.947Z,78.20
2018-06-18T18:52:27.382Z,78.10
2018-06-18T18:55:32.915Z,78.10
2018-06-18T18:58:14.832Z,78.10
2018-06-18T19:00:44.055Z,78.10
2018-06-18T19:03:12.447Z,78.20
2018-06-18T19:05:40.736Z,78.40
2018-06-18T19:08:13.259Z,78.50
2018-06-18T19:10:42.927Z,78.50
2018-06-18T19:13:14.768Z,78.50
2018-06-18T19:15:43.074Z,78.60
2018-06-18T19:18:11.753Z,78.60
2018-06-18T19:20:51.411Z,78.30
2018-06-18T19:23:20.391Z,79.40
2018-06-18T19:25:49.418Z,78.70
2018-06-18T19:28:18.687Z,78.70
2018-06-18T19:30:52.451Z,78.70
2018-06-18T19:33:25.193Z,78.70
2018-06-18T19:35:53.489Z,78.70
2018-06-18T19:38:21.775Z,78.80
2018-06-18T19:40:52.184Z,78.80
2018-06-18T19:43:20.458Z,78.80
2018-06-18T19:45:52.011Z,78.80
2018-06-18T19:48:23.106Z,78.80
2018-06-18T19:50:51.447Z,78.90
2018-06-18T19:53:19.851Z,78.90
2018-06-18T19:58:16.211Z,79.00
2018-06-18T20:00:48.450Z,79.00
2018-06-18T20:03:16.735Z,79.00
2018-06-18T20:05:45.637Z,79.00
2018-06-18T20:08:20.090Z,79.10
2018-06-18T20:10:48.414Z,79.20
2018-06-18T20:13:16.960Z,79.40
2018-06-18T20:15:45.247Z,79.40
2018-06-18T20:18:13.531Z,79.40
2018-06-18T20:20:41.786Z,79.40
2018-06-18T20:23:12.327Z,79.50
2018-06-18T20:25:51.638Z,79.60
2018-06-18T20:28:20.777Z,79.60
2018-06-18T20:30:49.078Z,79.60
2018-06-18T20:33:18.928Z,79.60
2018-06-18T20:35:56.334Z,79.60
2018-06-18T20:38:24.663Z,79.60
2018-06-18T20:40:52.938Z,80.10
2018-06-18T20:43:23.020Z,79.70
2018-06-18T20:45:51.286Z,80.00
2018-06-18T20:48:19.528Z,79.70
2018-06-18T20:53:15.863Z,79.90
2018-06-18T20:55:44.122Z,79.90
2018-06-18T20:58:13.008Z,79.70
2018-06-18T21:00:41.279Z,79.50
2018-06-18T21:03:09.595Z,79.50
2018-06-18T21:05:38.956Z,79.60
2018-06-18T21:08:08.930Z,79.50
2018-06-18T21:10:37.178Z,79.30
2018-06-18T21:13:05.836Z,79.30
2018-06-18T21:15:34.051Z,79.30
2018-06-18T21:18:02.298Z,79.20
2018-06-18T21:20:30.616Z,79.20
2018-06-18T21:22:58.849Z,79.90
2018-06-18T21:25:27.104Z,79.20
2018-06-18T21:27:56.116Z,79.20
2018-06-18T21:30:24.374Z,79.10
2018-06-18T21:32:52.614Z,79.10
2018-06-18T21:35:21.069Z,79.10
2018-06-18T21:37:49.386Z,79.00
2018-06-18T21:40:17.609Z,79.60
2018-06-18T21:42:46.073Z,78.90
2018-06-18T21:45:19.091Z,78.90
2018-06-18T21:47:48.578Z,78.90
2018-06-18T21:50:17.413Z,78.80
2018-06-18T21:52:45.898Z,78.80
2018-06-18T21:55:14.533Z,78.80
2018-06-18T21:57:42.801Z,78.70
2018-06-18T22:00:20.418Z,78.70
2018-06-18T22:02:48.834Z,78.70
2018-06-18T22:05:17.121Z,78.60
2018-06-18T22:07:47.346Z,78.60
2018-06-18T22:10:15.608Z,78.60
2018-06-18T22:12:43.835Z,78.60
2018-06-18T22:15:12.250Z,78.50
2018-06-18T22:17:40.517Z,78.50
2018-06-18T22:20:08.722Z,78.50
2018-06-18T22:22:37.251Z,78.50
2018-06-18T22:25:05.770Z,78.50
2018-06-18T22:27:34.009Z,78.40
2018-06-18T22:30:03.206Z,78.40
2018-06-18T22:32:31.432Z,78.40
2018-06-18T22:34:59.738Z,78.40
2018-06-18T22:37:28.240Z,78.30
2018-06-18T22:39:56.493Z,78.40
2018-06-18T22:42:24.725Z,78.30
2018-06-18T22:44:53.090Z,78.30
2018-06-18T22:47:21.311Z,78.30
2018-06-18T22:49:49.549Z,78.20
2018-06-18T22:54:48.777Z,78.30
2018-06-18T22:57:17.671Z,78.20
2018-06-18T22:59:47.082Z,78.20
2018-06-18T23:02:19.367Z,78.20
2018-06-18T23:04:47.730Z,78.20
2018-06-18T23:07:15.958Z,78.20
2018-06-18T23:09:46.707Z,78.10
2018-06-18T23:12:16.213Z,78.10
2018-06-18T23:14:44.703Z,78.10
2018-06-18T23:17:13.002Z,78.00
2018-06-18T23:19:41.654Z,78.00
2018-06-18T23:22:09.885Z,78.00
2018-06-18T23:24:38.117Z,78.00
2018-06-18T23:27:07.715Z,78.00
2018-06-18T23:29:35.929Z,78.00
2018-06-18T23:32:04.187Z,78.00
2018-06-18T23:34:32.655Z,78.00
2018-06-18T23:37:00.865Z,78.00
2018-06-18T23:39:29.085Z,78.00
2018-06-18T23:41:58.298Z,78.00
2018-06-18T23:44:26.614Z,78.00
2018-06-18T23:46:54.839Z,77.90
2018-06-18T23:49:23.335Z,77.90
2018-06-18T23:51:51.591Z,77.90
2018-06-18T23:54:19.862Z,77.90
2018-06-18T23:56:48.365Z,77.90
2018-06-18T23:59:16.585Z,77.90
